Terminal Aerodrome Forecast
Issued by NWS

Home | Current Version | Previous Version | Text Only | Print | Product List | Glossary On
Versions: 1 2 3 4 5 6 7 8 9 10 11 12 13
000
FTUS45 KRIW 042327
TAFBPI
TAF
KBPI 042327Z 0500/0524 22017G27KT P6SM VCSH SCT100
     FM050130 VRB10G18KT P6SM VCTS SCT080CB BKN110
     FM050600 VRB06KT P6SM SCT080
     FM051600 19015G23KT P6SM FEW060
     FM051800 20020G30KT P6SM FEW060
     FM052300 22022G33KT P6SM VCSH SCT080=

USA.gov is the U.S. government's official web portal to all federal, state and local government web resources and services.